sensor_id;sensor_type;location;lat;lon;timestamp;temperature;humidity
59307;DHT22;47983;53.016;-2.260;2023-04-15T00:01:10;5.50;99.90
59307;DHT22;47983;53.016;-2.260;2023-04-15T00:03:38;5.60;99.90
59307;DHT22;47983;53.016;-2.260;2023-04-15T00:08:34;5.60;99.90
59307;DHT22;47983;53.016;-2.260;2023-04-15T00:11:02;5.60;99.90
59307;DHT22;47983;53.016;-2.260;2023-04-15T00:13:32;5.60;99.90
59307;DHT22;47983;53.016;-2.260;2023-04-15T00:16:01;5.60;99.90
59307;DHT22;47983;53.016;-2.260;2023-04-15T00:18:29;5.60;99.90
59307;DHT22;47983;53.016;-2.260;2023-04-15T00:20:58;5.50;99.90
59307;DHT22;47983;53.016;-2.260;2023-04-15T00:23:26;5.50;99.90
59307;DHT22;47983;53.016;-2.260;2023-04-15T00:25:54;5.50;99.90
59307;DHT22;47983;53.016;-2.260;2023-04-15T00:28:22;5.50;99.90
59307;DHT22;47983;53.016;-2.260;2023-04-15T00:30:49;5.50;99.90
59307;DHT22;47983;53.016;-2.260;2023-04-15T00:33:17;5.50;99.90
59307;DHT22;47983;53.016;-2.260;2023-04-15T00:35:46;5.50;99.90
59307;DHT22;47983;53.016;-2.260;2023-04-15T00:38:14;5.50;99.90
59307;DHT22;47983;53.016;-2.260;2023-04-15T00:40:42;5.40;99.90
59307;DHT22;47983;53.016;-2.260;2023-04-15T00:43:09;5.50;99.90
59307;DHT22;47983;53.016;-2.260;2023-04-15T00:45:38;5.50;99.90
59307;DHT22;47983;53.016;-2.260;2023-04-15T00:48:06;5.50;99.90
59307;DHT22;47983;53.016;-2.260;2023-04-15T00:53:03;5.50;99.90
59307;DHT22;47983;53.016;-2.260;2023-04-15T00:55:31;5.50;99.90
59307;DHT22;47983;53.016;-2.260;2023-04-15T00:57:59;5.50;99.90
59307;DHT22;47983;53.016;-2.260;2023-04-15T01:00:26;5.50;99.90
59307;DHT22;47983;53.016;-2.260;2023-04-15T01:02:54;5.60;99.90
59307;DHT22;47983;53.016;-2.260;2023-04-15T01:05:22;5.60;99.90
59307;DHT22;47983;53.016;-2.260;2023-04-15T01:07:49;6.80;99.90
59307;DHT22;47983;53.016;-2.260;2023-04-15T01:10:17;5.70;99.90
59307;DHT22;47983;53.016;-2.260;2023-04-15T01:12:45;5.70;99.90
59307;DHT22;47983;53.016;-2.260;2023-04-15T01:15:13;5.70;99.90
59307;DHT22;47983;53.016;-2.260;2023-04-15T01:17:41;5.70;99.90
59307;DHT22;47983;53.016;-2.260;2023-04-15T01:20:09;5.70;99.90
59307;DHT22;47983;53.016;-2.260;2023-04-15T01:22:38;5.70;99.90
59307;DHT22;47983;53.016;-2.260;2023-04-15T01:25:12;5.70;99.90
59307;DHT22;47983;53.016;-2.260;2023-04-15T01:27:41;5.70;99.90
59307;DHT22;47983;53.016;-2.260;2023-04-15T01:30:10;5.80;99.90
59307;DHT22;47983;53.016;-2.260;2023-04-15T01:32:37;5.80;99.90
59307;DHT22;47983;53.016;-2.260;2023-04-15T01:35:24;5.80;99.90
59307;DHT22;47983;53.016;-2.260;2023-04-15T01:37:53;5.80;99.90
59307;DHT22;47983;53.016;-2.260;2023-04-15T01:40:20;5.80;99.90
59307;DHT22;47983;53.016;-2.260;2023-04-15T01:42:50;5.80;99.90
59307;DHT22;47983;53.016;-2.260;2023-04-15T01:45:19;5.80;99.90
59307;DHT22;47983;53.016;-2.260;2023-04-15T01:47:51;5.70;99.90
59307;DHT22;47983;53.016;-2.260;2023-04-15T01:50:20;5.50;99.90
59307;DHT22;47983;53.016;-2.260;2023-04-15T01:52:49;5.70;99.90
59307;DHT22;47983;53.016;-2.260;2023-04-15T01:57:48;5.60;99.90
59307;DHT22;47983;53.016;-2.260;2023-04-15T02:00:17;5.60;99.90
59307;DHT22;47983;53.016;-2.260;2023-04-15T02:02:46;5.60;99.90
59307;DHT22;47983;53.016;-2.260;2023-04-15T02:05:15;5.50;99.90
59307;DHT22;47983;53.016;-2.260;2023-04-15T02:07:48;5.50;99.90
59307;DHT22;47983;53.016;-2.260;2023-04-15T02:10:17;5.40;99.90
59307;DHT22;47983;53.016;-2.260;2023-04-15T02:12:46;5.30;99.90
59307;DHT22;47983;53.016;-2.260;2023-04-15T02:15:15;5.40;99.90
59307;DHT22;47983;53.016;-2.260;2023-04-15T02:17:44;5.30;99.90
59307;DHT22;47983;53.016;-2.260;2023-04-15T02:20:18;5.20;99.90
59307;DHT22;47983;53.016;-2.260;2023-04-15T02:22:49;5.10;99.90
59307;DHT22;47983;53.016;-2.260;2023-04-15T02:25:17;5.10;99.90
59307;DHT22;47983;53.016;-2.260;2023-04-15T02:27:47;5.00;99.90
59307;DHT22;47983;53.016;-2.260;2023-04-15T02:30:17;4.90;99.90
59307;DHT22;47983;53.016;-2.260;2023-04-15T02:32:46;4.80;99.90
59307;DHT22;47983;53.016;-2.260;2023-04-15T02:35:16;4.80;99.90
59307;DHT22;47983;53.016;-2.260;2023-04-15T02:37:47;4.80;99.90
59307;DHT22;47983;53.016;-2.260;2023-04-15T02:40:16;4.80;99.90
59307;DHT22;47983;53.016;-2.260;2023-04-15T02:42:46;4.80;99.90
59307;DHT22;47983;53.016;-2.260;2023-04-15T02:45:17;4.80;99.90
59307;DHT22;47983;53.016;-2.260;2023-04-15T02:47:50;4.80;99.90
59307;DHT22;47983;53.016;-2.260;2023-04-15T02:50:20;4.70;99.90
59307;DHT22;47983;53.016;-2.260;2023-04-15T02:52:51;4.70;99.90
59307;DHT22;47983;53.016;-2.260;2023-04-15T02:55:22;4.80;99.90
59307;DHT22;47983;53.016;-2.260;2023-04-15T02:57:51;4.80;99.90
59307;DHT22;47983;53.016;-2.260;2023-04-15T03:00:20;4.80;99.90
59307;DHT22;47983;53.016;-2.260;2023-04-15T03:02:50;4.80;99.90
59307;DHT22;47983;53.016;-2.260;2023-04-15T03:05:24;4.80;99.90
59307;DHT22;47983;53.016;-2.260;2023-04-15T03:07:53;4.80;99.90
59307;DHT22;47983;53.016;-2.260;2023-04-15T03:10:22;4.80;99.90
59307;DHT22;47983;53.016;-2.260;2023-04-15T03:12:51;4.70;99.90
59307;DHT22;47983;53.016;-2.260;2023-04-15T03:15:22;4.70;99.90
59307;DHT22;47983;53.016;-2.260;2023-04-15T03:17:53;4.70;99.90
59307;DHT22;47983;53.016;-2.260;2023-04-15T03:20:22;4.60;99.90
59307;DHT22;47983;53.016;-2.260;2023-04-15T03:22:52;4.50;99.90
59307;DHT22;47983;53.016;-2.260;2023-04-15T03:25:25;4.40;99.90
59307;DHT22;47983;53.016;-2.260;2023-04-15T03:27:54;4.30;99.90
59307;DHT22;47983;53.016;-2.260;2023-04-15T03:30:23;4.30;99.90
59307;DHT22;47983;53.016;-2.260;2023-04-15T03:32:52;4.20;99.90
59307;DHT22;47983;53.016;-2.260;2023-04-15T03:35:21;4.10;99.90
59307;DHT22;47983;53.016;-2.260;2023-04-15T03:37:55;4.10;99.90
59307;DHT22;47983;53.016;-2.260;2023-04-15T03:40:25;4.10;99.90
59307;DHT22;47983;53.016;-2.260;2023-04-15T03:42:56;4.10;99.90
59307;DHT22;47983;53.016;-2.260;2023-04-15T03:45:25;4.10;99.90
59307;DHT22;47983;53.016;-2.260;2023-04-15T03:47:54;4.00;99.90
59307;DHT22;47983;53.016;-2.260;2023-04-15T03:50:23;4.10;99.90
59307;DHT22;47983;53.016;-2.260;2023-04-15T03:52:52;4.10;99.90
59307;DHT22;47983;53.016;-2.260;2023-04-15T03:55:21;4.10;99.90
59307;DHT22;47983;53.016;-2.260;2023-04-15T03:57:50;4.20;99.90
59307;DHT22;47983;53.016;-2.260;2023-04-15T04:00:19;4.20;99.90
59307;DHT22;47983;53.016;-2.260;2023-04-15T04:02:48;4.30;99.90
59307;DHT22;47983;53.016;-2.260;2023-04-15T04:05:17;4.30;99.90
59307;DHT22;47983;53.016;-2.260;2023-04-15T04:07:46;4.40;99.90
59307;DHT22;47983;53.016;-2.260;2023-04-15T04:10:15;4.40;99.90
59307;DHT22;47983;53.016;-2.260;2023-04-15T04:12:44;4.40;99.90
59307;DHT22;47983;53.016;-2.260;2023-04-15T04:15:12;4.40;99.90
59307;DHT22;47983;53.016;-2.260;2023-04-15T04:17:41;4.40;99.90
59307;DHT22;47983;53.016;-2.260;2023-04-15T04:20:10;4.40;99.90
59307;DHT22;47983;53.016;-2.260;2023-04-15T04:22:40;4.40;99.90
59307;DHT22;47983;53.016;-2.260;2023-04-15T04:25:09;4.40;99.90
59307;DHT22;47983;53.016;-2.260;2023-04-15T04:27:38;4.40;99.90
59307;DHT22;47983;53.016;-2.260;2023-04-15T04:30:07;4.40;99.90
59307;DHT22;47983;53.016;-2.260;2023-04-15T04:32:36;4.40;99.90
59307;DHT22;47983;53.016;-2.260;2023-04-15T04:35:06;4.40;99.90
59307;DHT22;47983;53.016;-2.260;2023-04-15T04:37:35;4.40;99.90
59307;DHT22;47983;53.016;-2.260;2023-04-15T04:40:04;4.30;99.90
59307;DHT22;47983;53.016;-2.260;2023-04-15T04:42:33;4.30;99.90
59307;DHT22;47983;53.016;-2.260;2023-04-15T04:45:02;4.20;99.90
59307;DHT22;47983;53.016;-2.260;2023-04-15T04:47:31;4.10;99.90
59307;DHT22;47983;53.016;-2.260;2023-04-15T04:50:00;4.10;99.90
59307;DHT22;47983;53.016;-2.260;2023-04-15T04:52:29;4.10;99.90
59307;DHT22;47983;53.016;-2.260;2023-04-15T04:55:01;4.00;99.90
59307;DHT22;47983;53.016;-2.260;2023-04-15T04:57:30;3.90;99.90
59307;DHT22;47983;53.016;-2.260;2023-04-15T04:59:59;3.90;99.90
59307;DHT22;47983;53.016;-2.260;2023-04-15T05:02:28;3.80;99.90
59307;DHT22;47983;53.016;-2.260;2023-04-15T05:04:57;3.90;99.90
59307;DHT22;47983;53.016;-2.260;2023-04-15T05:07:26;3.80;99.90
59307;DHT22;47983;53.016;-2.260;2023-04-15T05:09:55;3.80;99.90
59307;DHT22;47983;53.016;-2.260;2023-04-15T05:12:24;3.70;99.90
59307;DHT22;47983;53.016;-2.260;2023-04-15T05:14:53;3.80;99.90
59307;DHT22;47983;53.016;-2.260;2023-04-15T05:17:21;3.70;99.90
59307;DHT22;47983;53.016;-2.260;2023-04-15T05:19:51;3.70;99.90
59307;DHT22;47983;53.016;-2.260;2023-04-15T05:22:21;3.60;99.90
59307;DHT22;47983;53.016;-2.260;2023-04-15T05:24:50;3.60;99.90
59307;DHT22;47983;53.016;-2.260;2023-04-15T05:27:19;3.60;99.90
59307;DHT22;47983;53.016;-2.260;2023-04-15T05:29:48;3.50;99.90
59307;DHT22;47983;53.016;-2.260;2023-04-15T05:32:17;3.50;99.90
59307;DHT22;47983;53.016;-2.260;2023-04-15T05:34:46;3.50;99.90
59307;DHT22;47983;53.016;-2.260;2023-04-15T05:37:15;3.40;99.90
59307;DHT22;47983;53.016;-2.260;2023-04-15T05:39:44;3.40;99.90
59307;DHT22;47983;53.016;-2.260;2023-04-15T05:42:13;3.30;99.90
59307;DHT22;47983;53.016;-2.260;2023-04-15T05:44:42;3.20;99.90
59307;DHT22;47983;53.016;-2.260;2023-04-15T05:47:10;3.20;99.90
59307;DHT22;47983;53.016;-2.260;2023-04-15T05:52:09;3.20;99.90
59307;DHT22;47983;53.016;-2.260;2023-04-15T05:54:38;3.10;99.90
59307;DHT22;47983;53.016;-2.260;2023-04-15T05:57:07;3.10;99.90
59307;DHT22;47983;53.016;-2.260;2023-04-15T05:59:36;3.10;99.90
59307;DHT22;47983;53.016;-2.260;2023-04-15T06:02:06;3.10;99.90
59307;DHT22;47983;53.016;-2.260;2023-04-15T06:04:35;3.10;99.90
59307;DHT22;47983;53.016;-2.260;2023-04-15T06:07:04;3.10;99.90
59307;DHT22;47983;53.016;-2.260;2023-04-15T06:09:33;3.10;99.90
59307;DHT22;47983;53.016;-2.260;2023-04-15T06:12:02;3.10;99.90
59307;DHT22;47983;53.016;-2.260;2023-04-15T06:14:31;3.10;99.90
59307;DHT22;47983;53.016;-2.260;2023-04-15T06:17:01;3.10;99.90
59307;DHT22;47983;53.016;-2.260;2023-04-15T06:19:29;3.10;99.90
59307;DHT22;47983;53.016;-2.260;2023-04-15T06:21:59;3.10;99.90
59307;DHT22;47983;53.016;-2.260;2023-04-15T06:24:29;3.10;99.90
59307;DHT22;47983;53.016;-2.260;2023-04-15T06:26:59;3.10;99.90
59307;DHT22;47983;53.016;-2.260;2023-04-15T06:29:28;3.10;99.90
59307;DHT22;47983;53.016;-2.260;2023-04-15T06:31:57;3.10;99.90
59307;DHT22;47983;53.016;-2.260;2023-04-15T06:34:26;3.20;99.90
59307;DHT22;47983;53.016;-2.260;2023-04-15T06:36:55;3.20;99.90
59307;DHT22;47983;53.016;-2.260;2023-04-15T06:39:25;3.30;99.90
59307;DHT22;47983;53.016;-2.260;2023-04-15T06:41:54;3.30;99.90
59307;DHT22;47983;53.016;-2.260;2023-04-15T06:44:24;3.30;99.90
59307;DHT22;47983;53.016;-2.260;2023-04-15T06:46:56;3.30;99.90
59307;DHT22;47983;53.016;-2.260;2023-04-15T06:49:25;3.40;99.90
59307;DHT22;47983;53.016;-2.260;2023-04-15T06:51:54;3.50;99.90
59307;DHT22;47983;53.016;-2.260;2023-04-15T06:54:24;3.60;99.90
59307;DHT22;47983;53.016;-2.260;2023-04-15T06:56:54;3.70;99.90
59307;DHT22;47983;53.016;-2.260;2023-04-15T06:59:23;3.70;99.90
59307;DHT22;47983;53.016;-2.260;2023-04-15T07:01:51;3.80;99.90
59307;DHT22;47983;53.016;-2.260;2023-04-15T07:04:21;3.80;99.90
59307;DHT22;47983;53.016;-2.260;2023-04-15T07:06:50;3.90;99.90
59307;DHT22;47983;53.016;-2.260;2023-04-15T07:09:20;3.80;99.90
59307;DHT22;47983;53.016;-2.260;2023-04-15T07:11:50;3.90;99.90
59307;DHT22;47983;53.016;-2.260;2023-04-15T07:14:19;3.90;99.90
59307;DHT22;47983;53.016;-2.260;2023-04-15T07:16:49;4.00;99.90
59307;DHT22;47983;53.016;-2.260;2023-04-15T07:19:18;4.10;99.90
59307;DHT22;47983;53.016;-2.260;2023-04-15T07:21:47;4.10;99.90
59307;DHT22;47983;53.016;-2.260;2023-04-15T07:24:16;4.30;99.90
59307;DHT22;47983;53.016;-2.260;2023-04-15T07:26:46;4.30;99.90
59307;DHT22;47983;53.016;-2.260;2023-04-15T07:29:15;4.40;99.90
59307;DHT22;47983;53.016;-2.260;2023-04-15T07:31:44;4.50;99.90
59307;DHT22;47983;53.016;-2.260;2023-04-15T07:34:13;4.50;99.90
59307;DHT22;47983;53.016;-2.260;2023-04-15T07:36:43;4.70;99.90
59307;DHT22;47983;53.016;-2.260;2023-04-15T07:39:11;4.70;99.90
59307;DHT22;47983;53.016;-2.260;2023-04-15T07:41:40;4.80;99.90
59307;DHT22;47983;53.016;-2.260;2023-04-15T07:44:10;4.90;99.90
59307;DHT22;47983;53.016;-2.260;2023-04-15T07:46:38;5.00;99.90
59307;DHT22;47983;53.016;-2.260;2023-04-15T07:49:08;5.10;99.90
59307;DHT22;47983;53.016;-2.260;2023-04-15T07:51:37;5.20;99.90
59307;DHT22;47983;53.016;-2.260;2023-04-15T07:54:05;5.20;99.90
59307;DHT22;47983;53.016;-2.260;2023-04-15T07:56:35;5.40;99.90
59307;DHT22;47983;53.016;-2.260;2023-04-15T07:59:03;5.40;99.90
59307;DHT22;47983;53.016;-2.260;2023-04-15T08:01:33;5.50;99.90
59307;DHT22;47983;53.016;-2.260;2023-04-15T08:04:02;5.60;99.90
59307;DHT22;47983;53.016;-2.260;2023-04-15T08:06:31;5.70;99.90
59307;DHT22;47983;53.016;-2.260;2023-04-15T08:09:01;5.70;99.90
59307;DHT22;47983;53.016;-2.260;2023-04-15T08:11:30;5.80;99.90
59307;DHT22;47983;53.016;-2.260;2023-04-15T08:13:59;5.80;99.90
59307;DHT22;47983;53.016;-2.260;2023-04-15T08:16:28;5.90;99.90
59307;DHT22;47983;53.016;-2.260;2023-04-15T08:18:57;6.00;99.90
59307;DHT22;47983;53.016;-2.260;2023-04-15T08:21:26;6.10;99.90
59307;DHT22;47983;53.016;-2.260;2023-04-15T08:23:55;6.10;99.90
59307;DHT22;47983;53.016;-2.260;2023-04-15T08:26:28;6.30;99.90
59307;DHT22;47983;53.016;-2.260;2023-04-15T08:28:57;6.30;99.90
59307;DHT22;47983;53.016;-2.260;2023-04-15T08:31:29;6.40;99.90
59307;DHT22;47983;53.016;-2.260;2023-04-15T08:33:58;6.40;99.90
59307;DHT22;47983;53.016;-2.260;2023-04-15T08:36:28;6.50;99.90
59307;DHT22;47983;53.016;-2.260;2023-04-15T08:38:57;6.60;99.90
59307;DHT22;47983;53.016;-2.260;2023-04-15T08:41:33;6.60;99.90
59307;DHT22;47983;53.016;-2.260;2023-04-15T08:44:05;6.70;99.90
59307;DHT22;47983;53.016;-2.260;2023-04-15T08:46:36;6.80;99.90
59307;DHT22;47983;53.016;-2.260;2023-04-15T08:49:09;6.90;99.90
59307;DHT22;47983;53.016;-2.260;2023-04-15T08:51:39;7.00;99.90
59307;DHT22;47983;53.016;-2.260;2023-04-15T08:54:08;7.10;99.90
59307;DHT22;47983;53.016;-2.260;2023-04-15T08:56:38;7.20;99.90
59307;DHT22;47983;53.016;-2.260;2023-04-15T08:59:07;7.20;99.90
59307;DHT22;47983;53.016;-2.260;2023-04-15T09:01:37;7.30;99.90
59307;DHT22;47983;53.016;-2.260;2023-04-15T09:04:06;7.30;99.90
59307;DHT22;47983;53.016;-2.260;2023-04-15T09:06:35;7.40;99.90
59307;DHT22;47983;53.016;-2.260;2023-04-15T09:09:05;7.50;99.90
59307;DHT22;47983;53.016;-2.260;2023-04-15T09:11:33;7.60;99.90
59307;DHT22;47983;53.016;-2.260;2023-04-15T09:14:03;7.80;99.90
59307;DHT22;47983;53.016;-2.260;2023-04-15T09:16:55;11.30;99.90
59307;DHT22;47983;53.016;-2.260;2023-04-15T09:19:24;7.90;99.90
59307;DHT22;47983;53.016;-2.260;2023-04-15T09:21:57;8.00;99.90
59307;DHT22;47983;53.016;-2.260;2023-04-15T09:24:36;8.20;99.90
59307;DHT22;47983;53.016;-2.260;2023-04-15T09:27:06;8.30;99.90
59307;DHT22;47983;53.016;-2.260;2023-04-15T09:29:36;8.30;99.90
59307;DHT22;47983;53.016;-2.260;2023-04-15T09:32:12;8.50;99.90
59307;DHT22;47983;53.016;-2.260;2023-04-15T09:34:42;8.60;99.90
59307;DHT22;47983;53.016;-2.260;2023-04-15T09:37:11;9.00;99.90
59307;DHT22;47983;53.016;-2.260;2023-04-15T09:39:56;9.00;99.90
59307;DHT22;47983;53.016;-2.260;2023-04-15T09:42:25;9.30;99.90
59307;DHT22;47983;53.016;-2.260;2023-04-15T09:45:07;9.70;99.90
59307;DHT22;47983;53.016;-2.260;2023-04-15T09:47:36;9.70;99.90
59307;DHT22;47983;53.016;-2.260;2023-04-15T09:50:05;9.90;99.90
59307;DHT22;47983;53.016;-2.260;2023-04-15T09:52:40;10.00;99.90
59307;DHT22;47983;53.016;-2.260;2023-04-15T09:55:12;10.10;99.90
59307;DHT22;47983;53.016;-2.260;2023-04-15T09:57:41;10.10;99.90
59307;DHT22;47983;53.016;-2.260;2023-04-15T10:00:12;10.30;99.90
59307;DHT22;47983;53.016;-2.260;2023-04-15T10:02:42;10.20;99.90
59307;DHT22;47983;53.016;-2.260;2023-04-15T10:05:13;10.20;99.90
59307;DHT22;47983;53.016;-2.260;2023-04-15T10:07:43;10.30;99.90
59307;DHT22;47983;53.016;-2.260;2023-04-15T10:10:13;10.30;99.90
59307;DHT22;47983;53.016;-2.260;2023-04-15T10:12:42;10.30;99.90
59307;DHT22;47983;53.016;-2.260;2023-04-15T10:15:15;10.30;99.90
59307;DHT22;47983;53.016;-2.260;2023-04-15T10:17:47;10.50;99.90
59307;DHT22;47983;53.016;-2.260;2023-04-15T10:20:18;10.60;99.90
59307;DHT22;47983;53.016;-2.260;2023-04-15T10:22:48;10.70;99.90
59307;DHT22;47983;53.016;-2.260;2023-04-15T10:25:19;10.80;99.90
59307;DHT22;47983;53.016;-2.260;2023-04-15T10:27:49;10.90;99.90
59307;DHT22;47983;53.016;-2.260;2023-04-15T10:30:23;11.00;99.90
59307;DHT22;47983;53.016;-2.260;2023-04-15T10:32:52;11.10;99.90
59307;DHT22;47983;53.016;-2.260;2023-04-15T10:35:22;11.10;99.90
59307;DHT22;47983;53.016;-2.260;2023-04-15T10:37:51;11.10;99.90
59307;DHT22;47983;53.016;-2.260;2023-04-15T10:42:56;11.30;99.90
59307;DHT22;47983;53.016;-2.260;2023-04-15T10:45:33;11.40;99.90
59307;DHT22;47983;53.016;-2.260;2023-04-15T10:48:06;11.40;99.90
59307;DHT22;47983;53.016;-2.260;2023-04-15T10:50:41;11.50;99.90
59307;DHT22;47983;53.016;-2.260;2023-04-15T10:53:27;11.40;99.90
59307;DHT22;47983;53.016;-2.260;2023-04-15T10:55:57;11.40;99.90
59307;DHT22;47983;53.016;-2.260;2023-04-15T10:58:43;11.40;99.90
59307;DHT22;47983;53.016;-2.260;2023-04-15T11:01:12;11.50;99.90
59307;DHT22;47983;53.016;-2.260;2023-04-15T11:03:42;11.50;99.90
59307;DHT22;47983;53.016;-2.260;2023-04-15T11:06:11;11.40;99.90
59307;DHT22;47983;53.016;-2.260;2023-04-15T11:08:59;11.50;99.90
59307;DHT22;47983;53.016;-2.260;2023-04-15T11:12:08;11.60;99.90
59307;DHT22;47983;53.016;-2.260;2023-04-15T11:14:40;11.70;99.90
59307;DHT22;47983;53.016;-2.260;2023-04-15T11:17:11;11.70;99.90
59307;DHT22;47983;53.016;-2.260;2023-04-15T11:19:39;11.80;99.90
59307;DHT22;47983;53.016;-2.260;2023-04-15T11:22:09;11.80;99.90
59307;DHT22;47983;53.016;-2.260;2023-04-15T11:24:47;11.70;99.90
59307;DHT22;47983;53.016;-2.260;2023-04-15T11:27:21;11.70;99.90
59307;DHT22;47983;53.016;-2.260;2023-04-15T11:29:51;11.60;99.90
59307;DHT22;47983;53.016;-2.260;2023-04-15T11:32:20;11.50;99.90
59307;DHT22;47983;53.016;-2.260;2023-04-15T11:34:51;11.50;99.90
59307;DHT22;47983;53.016;-2.260;2023-04-15T11:37:26;11.50;99.90
59307;DHT22;47983;53.016;-2.260;2023-04-15T11:39:55;11.50;99.90
59307;DHT22;47983;53.016;-2.260;2023-04-15T11:42:24;11.50;99.90
59307;DHT22;47983;53.016;-2.260;2023-04-15T11:45:13;11.50;99.90
59307;DHT22;47983;53.016;-2.260;2023-04-15T11:47:43;11.70;99.90
59307;DHT22;47983;53.016;-2.260;2023-04-15T11:50:16;11.90;99.90
59307;DHT22;47983;53.016;-2.260;2023-04-15T11:53:00;12.40;99.90
59307;DHT22;47983;53.016;-2.260;2023-04-15T11:55:29;12.40;99.90
59307;DHT22;47983;53.016;-2.260;2023-04-15T11:58:16;12.70;99.90
59307;DHT22;47983;53.016;-2.260;2023-04-15T12:00:52;13.10;99.90
59307;DHT22;47983;53.016;-2.260;2023-04-15T12:03:28;13.30;99.90
59307;DHT22;47983;53.016;-2.260;2023-04-15T12:06:10;13.50;99.90
59307;DHT22;47983;53.016;-2.260;2023-04-15T12:08:58;13.70;99.90
59307;DHT22;47983;53.016;-2.260;2023-04-15T12:11:31;13.80;99.90
59307;DHT22;47983;53.016;-2.260;2023-04-15T12:16:41;13.90;99.90
59307;DHT22;47983;53.016;-2.260;2023-04-15T12:19:19;14.00;99.90
59307;DHT22;47983;53.016;-2.260;2023-04-15T12:21:49;14.10;99.90
59307;DHT22;47983;53.016;-2.260;2023-04-15T12:24:20;14.30;99.90
59307;DHT22;47983;53.016;-2.260;2023-04-15T12:26:54;14.40;99.90
59307;DHT22;47983;53.016;-2.260;2023-04-15T12:29:28;14.70;99.90
59307;DHT22;47983;53.016;-2.260;2023-04-15T12:32:07;14.70;99.90
59307;DHT22;47983;53.016;-2.260;2023-04-15T12:34:37;14.90;99.90
59307;DHT22;47983;53.016;-2.260;2023-04-15T12:37:08;15.20;99.90
59307;DHT22;47983;53.016;-2.260;2023-04-15T12:39:37;15.80;99.90
59307;DHT22;47983;53.016;-2.260;2023-04-15T12:42:05;16.10;99.90
59307;DHT22;47983;53.016;-2.260;2023-04-15T12:44:34;16.00;99.90
59307;DHT22;47983;53.016;-2.260;2023-04-15T12:47:02;15.90;99.90
59307;DHT22;47983;53.016;-2.260;2023-04-15T12:49:30;15.70;99.90
59307;DHT22;47983;53.016;-2.260;2023-04-15T12:52:01;15.50;99.90
59307;DHT22;47983;53.016;-2.260;2023-04-15T12:54:30;15.30;99.90
59307;DHT22;47983;53.016;-2.260;2023-04-15T12:56:58;15.20;99.90
59307;DHT22;47983;53.016;-2.260;2023-04-15T12:59:26;15.00;99.90
59307;DHT22;47983;53.016;-2.260;2023-04-15T13:01:54;14.80;99.90
59307;DHT22;47983;53.016;-2.260;2023-04-15T13:04:25;14.60;99.90
59307;DHT22;47983;53.016;-2.260;2023-04-15T13:06:57;14.60;99.90
59307;DHT22;47983;53.016;-2.260;2023-04-15T13:09:25;14.50;99.90
59307;DHT22;47983;53.016;-2.260;2023-04-15T13:11:55;14.40;99.90
59307;DHT22;47983;53.016;-2.260;2023-04-15T13:14:22;14.40;99.90
59307;DHT22;47983;53.016;-2.260;2023-04-15T13:16:50;14.30;99.90
59307;DHT22;47983;53.016;-2.260;2023-04-15T13:19:17;14.10;99.90
59307;DHT22;47983;53.016;-2.260;2023-04-15T13:21:48;14.10;99.90
59307;DHT22;47983;53.016;-2.260;2023-04-15T13:24:16;13.90;99.90
59307;DHT22;47983;53.016;-2.260;2023-04-15T13:26:43;13.90;99.90
59307;DHT22;47983;53.016;-2.260;2023-04-15T13:29:11;13.80;99.90
59307;DHT22;47983;53.016;-2.260;2023-04-15T13:31:40;13.80;99.90
59307;DHT22;47983;53.016;-2.260;2023-04-15T13:34:08;13.80;99.90
59307;DHT22;47983;53.016;-2.260;2023-04-15T13:36:35;13.70;99.90
59307;DHT22;47983;53.016;-2.260;2023-04-15T13:39:03;13.70;99.90
59307;DHT22;47983;53.016;-2.260;2023-04-15T13:41:31;13.60;99.90
59307;DHT22;47983;53.016;-2.260;2023-04-15T13:43:59;13.60;99.90
59307;DHT22;47983;53.016;-2.260;2023-04-15T13:46:27;13.60;99.90
59307;DHT22;47983;53.016;-2.260;2023-04-15T13:48:54;13.50;99.90
59307;DHT22;47983;53.016;-2.260;2023-04-15T13:51:24;13.50;99.90
59307;DHT22;47983;53.016;-2.260;2023-04-15T13:53:53;13.40;99.90
59307;DHT22;47983;53.016;-2.260;2023-04-15T13:56:21;13.40;99.90
59307;DHT22;47983;53.016;-2.260;2023-04-15T13:58:48;13.30;99.90
59307;DHT22;47983;53.016;-2.260;2023-04-15T14:01:16;13.30;99.90
59307;DHT22;47983;53.016;-2.260;2023-04-15T14:03:44;13.30;99.90
59307;DHT22;47983;53.016;-2.260;2023-04-15T14:06:12;13.30;99.90
59307;DHT22;47983;53.016;-2.260;2023-04-15T14:08:40;13.30;99.90
59307;DHT22;47983;53.016;-2.260;2023-04-15T14:11:07;13.20;99.90
59307;DHT22;47983;53.016;-2.260;2023-04-15T14:13:35;13.20;99.90
59307;DHT22;47983;53.016;-2.260;2023-04-15T14:16:03;13.20;99.90
59307;DHT22;47983;53.016;-2.260;2023-04-15T14:18:32;13.20;99.90
59307;DHT22;47983;53.016;-2.260;2023-04-15T14:20:59;13.20;99.90
59307;DHT22;47983;53.016;-2.260;2023-04-15T14:23:27;13.20;99.90
59307;DHT22;47983;53.016;-2.260;2023-04-15T14:25:55;13.30;99.90
59307;DHT22;47983;53.016;-2.260;2023-04-15T14:28:25;13.30;99.90
59307;DHT22;47983;53.016;-2.260;2023-04-15T14:30:52;13.30;99.90
59307;DHT22;47983;53.016;-2.260;2023-04-15T14:33:20;13.30;99.90
59307;DHT22;47983;53.016;-2.260;2023-04-15T14:35:48;13.40;99.90
59307;DHT22;47983;53.016;-2.260;2023-04-15T14:38:16;13.30;99.90
59307;DHT22;47983;53.016;-2.260;2023-04-15T14:40:44;13.40;99.90
59307;DHT22;47983;53.016;-2.260;2023-04-15T14:43:11;13.40;99.90
59307;DHT22;47983;53.016;-2.260;2023-04-15T14:45:39;13.40;99.90
59307;DHT22;47983;53.016;-2.260;2023-04-15T14:48:11;13.40;99.90
59307;DHT22;47983;53.016;-2.260;2023-04-15T14:50:39;13.60;99.90
59307;DHT22;47983;53.016;-2.260;2023-04-15T14:53:07;14.00;99.90
59307;DHT22;47983;53.016;-2.260;2023-04-15T14:55:35;14.00;99.90
59307;DHT22;47983;53.016;-2.260;2023-04-15T14:58:03;14.00;99.90
59307;DHT22;47983;53.016;-2.260;2023-04-15T15:00:30;14.00;99.90
59307;DHT22;47983;53.016;-2.260;2023-04-15T15:02:58;14.10;99.90
59307;DHT22;47983;53.016;-2.260;2023-04-15T15:05:26;14.20;99.90
59307;DHT22;47983;53.016;-2.260;2023-04-15T15:07:54;14.20;99.90
59307;DHT22;47983;53.016;-2.260;2023-04-15T15:10:22;14.30;99.90
59307;DHT22;47983;53.016;-2.260;2023-04-15T15:13:10;14.30;99.90
59307;DHT22;47983;53.016;-2.260;2023-04-15T15:15:38;14.40;99.90
59307;DHT22;47983;53.016;-2.260;2023-04-15T15:18:06;14.40;99.90
59307;DHT22;47983;53.016;-2.260;2023-04-15T15:20:33;14.40;99.90
59307;DHT22;47983;53.016;-2.260;2023-04-15T15:23:02;14.40;99.90
59307;DHT22;47983;53.016;-2.260;2023-04-15T15:25:29;14.40;99.90
59307;DHT22;47983;53.016;-2.260;2023-04-15T15:27:57;14.60;99.90
59307;DHT22;47983;53.016;-2.260;2023-04-15T15:30:25;14.60;99.90
59307;DHT22;47983;53.016;-2.260;2023-04-15T15:32:52;14.70;99.90
59307;DHT22;47983;53.016;-2.260;2023-04-15T15:35:20;14.80;99.90
59307;DHT22;47983;53.016;-2.260;2023-04-15T15:37:49;14.90;99.90
59307;DHT22;47983;53.016;-2.260;2023-04-15T15:42:45;14.90;99.90
59307;DHT22;47983;53.016;-2.260;2023-04-15T15:45:16;14.90;99.90
59307;DHT22;47983;53.016;-2.260;2023-04-15T15:47:44;14.90;99.90
59307;DHT22;47983;53.016;-2.260;2023-04-15T15:50:12;15.00;99.90
59307;DHT22;47983;53.016;-2.260;2023-04-15T15:52:40;15.00;99.90
59307;DHT22;47983;53.016;-2.260;2023-04-15T15:55:07;15.00;99.90
59307;DHT22;47983;53.016;-2.260;2023-04-15T15:57:35;15.10;99.90
59307;DHT22;47983;53.016;-2.260;2023-04-15T16:00:03;15.10;99.90